sensor_id;sensor_type;location;lat;lon;timestamp;P1;durP1;ratioP1;P2;durP2;ratioP2
25946;SDS011;13745;51.470;9.894;2022-09-17T00:00:12;1.10;;;0.32;;
25946;SDS011;13745;51.470;9.894;2022-09-17T00:02:57;0.63;;;0.30;;
25946;SDS011;13745;51.470;9.894;2022-09-17T00:05:43;0.25;;;0.17;;
25946;SDS011;13745;51.470;9.894;2022-09-17T00:08:29;1.33;;;0.20;;
25946;SDS011;13745;51.470;9.894;2022-09-17T00:11:15;0.88;;;0.20;;
25946;SDS011;13745;51.470;9.894;2022-09-17T00:14:06;0.85;;;0.20;;
25946;SDS011;13745;51.470;9.894;2022-09-17T00:16:53;2.60;;;0.30;;
25946;SDS011;13745;51.470;9.894;2022-09-17T00:19:39;0.50;;;0.10;;
25946;SDS011;13745;51.470;9.894;2022-09-17T00:22:24;0.63;;;0.10;;
25946;SDS011;13745;51.470;9.894;2022-09-17T00:25:10;2.17;;;0.20;;
25946;SDS011;13745;51.470;9.894;2022-09-17T00:27:56;0.98;;;0.20;;
25946;SDS011;13745;51.470;9.894;2022-09-17T00:30:43;1.40;;;0.30;;
25946;SDS011;13745;51.470;9.894;2022-09-17T00:33:30;0.70;;;0.10;;
25946;SDS011;13745;51.470;9.894;2022-09-17T00:36:15;1.75;;;0.43;;
25946;SDS011;13745;51.470;9.894;2022-09-17T00:39:04;0.20;;;0.10;;
25946;SDS011;13745;51.470;9.894;2022-09-17T00:41:51;0.98;;;0.17;;
25946;SDS011;13745;51.470;9.894;2022-09-17T00:44:39;1.52;;;0.30;;
25946;SDS011;13745;51.470;9.894;2022-09-17T00:47:29;1.05;;;0.28;;
25946;SDS011;13745;51.470;9.894;2022-09-17T00:50:18;1.50;;;0.75;;
25946;SDS011;13745;51.470;9.894;2022-09-17T00:53:08;2.63;;;0.28;;
25946;SDS011;13745;51.470;9.894;2022-09-17T00:55:57;0.43;;;0.13;;
25946;SDS011;13745;51.470;9.894;2022-09-17T00:58:47;0.40;;;0.20;;
25946;SDS011;13745;51.470;9.894;2022-09-17T01:01:33;1.25;;;0.32;;
25946;SDS011;13745;51.470;9.894;2022-09-17T01:04:21;0.85;;;0.10;;
25946;SDS011;13745;51.470;9.894;2022-09-17T01:07:10;0.90;;;0.20;;
25946;SDS011;13745;51.470;9.894;2022-09-17T01:10:05;0.60;;;0.15;;
25946;SDS011;13745;51.470;9.894;2022-09-17T01:13:02;0.20;;;0.20;;
25946;SDS011;13745;51.470;9.894;2022-09-17T01:15:57;0.10;;;0.10;;
25946;SDS011;13745;51.470;9.894;2022-09-17T01:18:54;1.33;;;0.20;;
25946;SDS011;13745;51.470;9.894;2022-09-17T01:21:55;1.35;;;0.20;;
25946;SDS011;13745;51.470;9.894;2022-09-17T01:24:49;0.40;;;0.30;;
25946;SDS011;13745;51.470;9.894;2022-09-17T01:31:09;2.38;;;0.60;;
25946;SDS011;13745;51.470;9.894;2022-09-17T01:34:09;1.38;;;0.10;;
25946;SDS011;13745;51.470;9.894;2022-09-17T01:37:02;0.52;;;0.10;;
25946;SDS011;13745;51.470;9.894;2022-09-17T01:39:53;0.55;;;0.20;;
25946;SDS011;13745;51.470;9.894;2022-09-17T01:42:46;0.70;;;0.13;;
25946;SDS011;13745;51.470;9.894;2022-09-17T01:45:38;0.35;;;0.17;;
25946;SDS011;13745;51.470;9.894;2022-09-17T01:48:31;0.45;;;0.20;;
25946;SDS011;13745;51.470;9.894;2022-09-17T01:51:19;2.45;;;0.28;;
25946;SDS011;13745;51.470;9.894;2022-09-17T01:54:09;2.58;;;0.20;;
25946;SDS011;13745;51.470;9.894;2022-09-17T01:57:00;4.85;;;0.30;;
25946;SDS011;13745;51.470;9.894;2022-09-17T01:59:53;0.70;;;0.25;;
25946;SDS011;13745;51.470;9.894;2022-09-17T02:02:45;4.72;;;0.50;;
25946;SDS011;13745;51.470;9.894;2022-09-17T02:05:38;2.30;;;0.88;;
25946;SDS011;13745;51.470;9.894;2022-09-17T02:08:26;5.53;;;0.88;;
25946;SDS011;13745;51.470;9.894;2022-09-17T02:11:20;4.80;;;0.50;;
25946;SDS011;13745;51.470;9.894;2022-09-17T02:14:08;5.07;;;0.82;;
25946;SDS011;13745;51.470;9.894;2022-09-17T02:16:59;2.35;;;0.40;;
25946;SDS011;13745;51.470;9.894;2022-09-17T02:19:50;5.07;;;0.55;;
25946;SDS011;13745;51.470;9.894;2022-09-17T02:22:40;2.60;;;0.50;;
25946;SDS011;13745;51.470;9.894;2022-09-17T02:25:27;2.38;;;0.70;;
25946;SDS011;13745;51.470;9.894;2022-09-17T02:28:21;3.95;;;0.70;;
25946;SDS011;13745;51.470;9.894;2022-09-17T02:31:15;5.18;;;0.55;;
25946;SDS011;13745;51.470;9.894;2022-09-17T02:34:01;4.97;;;0.68;;
25946;SDS011;13745;51.470;9.894;2022-09-17T02:36:49;7.20;;;1.00;;
25946;SDS011;13745;51.470;9.894;2022-09-17T02:39:37;2.78;;;0.50;;
25946;SDS011;13745;51.470;9.894;2022-09-17T02:42:27;5.63;;;0.60;;
25946;SDS011;13745;51.470;9.894;2022-09-17T02:45:23;10.50;;;1.00;;
25946;SDS011;13745;51.470;9.894;2022-09-17T02:48:19;5.15;;;0.90;;
25946;SDS011;13745;51.470;9.894;2022-09-17T02:51:18;2.38;;;0.73;;
25946;SDS011;13745;51.470;9.894;2022-09-17T02:54:22;7.00;;;0.73;;
25946;SDS011;13745;51.470;9.894;2022-09-17T02:57:14;7.32;;;0.90;;
25946;SDS011;13745;51.470;9.894;2022-09-17T03:00:06;4.25;;;0.70;;
25946;SDS011;13745;51.470;9.894;2022-09-17T03:02:57;3.15;;;0.75;;
25946;SDS011;13745;51.470;9.894;2022-09-17T03:05:46;6.85;;;0.90;;
25946;SDS011;13745;51.470;9.894;2022-09-17T03:08:33;2.78;;;0.70;;
25946;SDS011;13745;51.470;9.894;2022-09-17T03:11:22;12.20;;;1.00;;
25946;SDS011;13745;51.470;9.894;2022-09-17T03:14:09;5.75;;;0.70;;
25946;SDS011;13745;51.470;9.894;2022-09-17T03:16:55;8.90;;;1.00;;
25946;SDS011;13745;51.470;9.894;2022-09-17T03:19:41;4.18;;;0.75;;
25946;SDS011;13745;51.470;9.894;2022-09-17T03:22:26;6.50;;;0.93;;
25946;SDS011;13745;51.470;9.894;2022-09-17T03:25:12;4.45;;;0.65;;
25946;SDS011;13745;51.470;9.894;2022-09-17T03:27:58;8.35;;;1.10;;
25946;SDS011;13745;51.470;9.894;2022-09-17T03:30:45;7.35;;;1.40;;
25946;SDS011;13745;51.470;9.894;2022-09-17T03:33:31;5.75;;;0.90;;
25946;SDS011;13745;51.470;9.894;2022-09-17T03:36:16;6.40;;;0.70;;
25946;SDS011;13745;51.470;9.894;2022-09-17T03:39:02;11.10;;;1.15;;
25946;SDS011;13745;51.470;9.894;2022-09-17T03:41:48;3.95;;;1.20;;
25946;SDS011;13745;51.470;9.894;2022-09-17T03:44:34;6.38;;;1.20;;
25946;SDS011;13745;51.470;9.894;2022-09-17T03:47:21;8.02;;;1.40;;
25946;SDS011;13745;51.470;9.894;2022-09-17T03:50:07;6.43;;;1.02;;
25946;SDS011;13745;51.470;9.894;2022-09-17T03:52:53;6.25;;;1.05;;
25946;SDS011;13745;51.470;9.894;2022-09-17T03:55:39;12.50;;;1.58;;
25946;SDS011;13745;51.470;9.894;2022-09-17T03:58:24;10.55;;;1.10;;
25946;SDS011;13745;51.470;9.894;2022-09-17T04:01:10;9.90;;;1.55;;
25946;SDS011;13745;51.470;9.894;2022-09-17T04:03:57;5.35;;;1.25;;
25946;SDS011;13745;51.470;9.894;2022-09-17T04:06:43;10.35;;;1.00;;
25946;SDS011;13745;51.470;9.894;2022-09-17T04:09:29;8.85;;;0.82;;
25946;SDS011;13745;51.470;9.894;2022-09-17T04:12:15;5.50;;;1.13;;
25946;SDS011;13745;51.470;9.894;2022-09-17T04:15:01;7.18;;;1.20;;
25946;SDS011;13745;51.470;9.894;2022-09-17T04:17:47;5.32;;;0.98;;
25946;SDS011;13745;51.470;9.894;2022-09-17T04:20:35;13.27;;;1.88;;
25946;SDS011;13745;51.470;9.894;2022-09-17T04:23:21;8.68;;;1.42;;
25946;SDS011;13745;51.470;9.894;2022-09-17T04:26:07;3.97;;;0.65;;
25946;SDS011;13745;51.470;9.894;2022-09-17T04:28:52;7.68;;;1.20;;
25946;SDS011;13745;51.470;9.894;2022-09-17T04:31:38;9.02;;;0.98;;
25946;SDS011;13745;51.470;9.894;2022-09-17T04:34:24;4.85;;;1.20;;
25946;SDS011;13745;51.470;9.894;2022-09-17T04:37:11;6.72;;;1.85;;
25946;SDS011;13745;51.470;9.894;2022-09-17T04:39:57;10.05;;;1.45;;
25946;SDS011;13745;51.470;9.894;2022-09-17T04:42:42;6.05;;;1.10;;
25946;SDS011;13745;51.470;9.894;2022-09-17T04:45:28;12.70;;;1.77;;
25946;SDS011;13745;51.470;9.894;2022-09-17T04:48:16;8.18;;;1.27;;
25946;SDS011;13745;51.470;9.894;2022-09-17T04:51:02;15.13;;;2.03;;
25946;SDS011;13745;51.470;9.894;2022-09-17T04:53:49;12.25;;;1.63;;
25946;SDS011;13745;51.470;9.894;2022-09-17T04:56:35;13.30;;;1.73;;
25946;SDS011;13745;51.470;9.894;2022-09-17T04:59:20;9.95;;;1.65;;
25946;SDS011;13745;51.470;9.894;2022-09-17T05:02:06;16.33;;;1.88;;
25946;SDS011;13745;51.470;9.894;2022-09-17T05:04:52;10.85;;;2.38;;
25946;SDS011;13745;51.470;9.894;2022-09-17T05:07:40;11.85;;;2.03;;
25946;SDS011;13745;51.470;9.894;2022-09-17T05:10:28;9.27;;;2.92;;
25946;SDS011;13745;51.470;9.894;2022-09-17T05:13:14;16.40;;;2.70;;
25946;SDS011;13745;51.470;9.894;2022-09-17T05:15:59;9.90;;;2.67;;
25946;SDS011;13745;51.470;9.894;2022-09-17T05:18:45;9.23;;;2.20;;
25946;SDS011;13745;51.470;9.894;2022-09-17T05:21:32;17.17;;;2.00;;
25946;SDS011;13745;51.470;9.894;2022-09-17T05:24:18;9.07;;;1.67;;
25946;SDS011;13745;51.470;9.894;2022-09-17T05:27:05;12.30;;;1.85;;
25946;SDS011;13745;51.470;9.894;2022-09-17T05:29:51;12.82;;;2.45;;
25946;SDS011;13745;51.470;9.894;2022-09-17T05:32:37;11.10;;;2.17;;
25946;SDS011;13745;51.470;9.894;2022-09-17T05:35:23;13.70;;;2.05;;
25946;SDS011;13745;51.470;9.894;2022-09-17T05:38:09;18.00;;;2.50;;
25946;SDS011;13745;51.470;9.894;2022-09-17T05:40:55;10.15;;;2.33;;
25946;SDS011;13745;51.470;9.894;2022-09-17T05:43:42;15.02;;;2.13;;
25946;SDS011;13745;51.470;9.894;2022-09-17T05:46:28;15.52;;;2.10;;
25946;SDS011;13745;51.470;9.894;2022-09-17T05:49:14;10.93;;;2.33;;
25946;SDS011;13745;51.470;9.894;2022-09-17T05:52:00;11.40;;;2.55;;
25946;SDS011;13745;51.470;9.894;2022-09-17T05:54:47;12.18;;;2.67;;
25946;SDS011;13745;51.470;9.894;2022-09-17T05:57:33;16.58;;;2.78;;
25946;SDS011;13745;51.470;9.894;2022-09-17T06:00:19;19.50;;;1.90;;
25946;SDS011;13745;51.470;9.894;2022-09-17T06:03:05;15.60;;;2.28;;
25946;SDS011;13745;51.470;9.894;2022-09-17T06:05:52;11.85;;;2.28;;
25946;SDS011;13745;51.470;9.894;2022-09-17T06:08:38;11.63;;;1.98;;
25946;SDS011;13745;51.470;9.894;2022-09-17T06:11:24;19.63;;;2.00;;
25946;SDS011;13745;51.470;9.894;2022-09-17T06:14:10;12.40;;;1.98;;
25946;SDS011;13745;51.470;9.894;2022-09-17T06:16:57;15.20;;;2.50;;
25946;SDS011;13745;51.470;9.894;2022-09-17T06:19:43;14.70;;;2.40;;
25946;SDS011;13745;51.470;9.894;2022-09-17T06:22:28;11.43;;;1.80;;
25946;SDS011;13745;51.470;9.894;2022-09-17T06:25:14;12.85;;;2.00;;
25946;SDS011;13745;51.470;9.894;2022-09-17T06:28:00;11.25;;;2.17;;
25946;SDS011;13745;51.470;9.894;2022-09-17T06:30:46;7.68;;;1.67;;
25946;SDS011;13745;51.470;9.894;2022-09-17T06:33:34;16.02;;;2.30;;
25946;SDS011;13745;51.470;9.894;2022-09-17T06:36:20;14.52;;;2.67;;
25946;SDS011;13745;51.470;9.894;2022-09-17T06:39:06;14.50;;;3.25;;
25946;SDS011;13745;51.470;9.894;2022-09-17T06:41:52;15.52;;;2.17;;
25946;SDS011;13745;51.470;9.894;2022-09-17T06:44:39;10.48;;;3.28;;
25946;SDS011;13745;51.470;9.894;2022-09-17T06:47:24;11.60;;;2.03;;
25946;SDS011;13745;51.470;9.894;2022-09-17T06:50:11;7.43;;;2.45;;
25946;SDS011;13745;51.470;9.894;2022-09-17T06:52:57;13.57;;;2.17;;
25946;SDS011;13745;51.470;9.894;2022-09-17T06:55:43;21.10;;;2.47;;
25946;SDS011;13745;51.470;9.894;2022-09-17T06:58:28;17.48;;;2.40;;
25946;SDS011;13745;51.470;9.894;2022-09-17T07:01:14;10.90;;;2.08;;
25946;SDS011;13745;51.470;9.894;2022-09-17T07:04:00;18.95;;;2.45;;
25946;SDS011;13745;51.470;9.894;2022-09-17T07:06:48;15.63;;;2.25;;
25946;SDS011;13745;51.470;9.894;2022-09-17T07:09:33;12.88;;;2.28;;
25946;SDS011;13745;51.470;9.894;2022-09-17T07:12:19;11.70;;;1.70;;
25946;SDS011;13745;51.470;9.894;2022-09-17T07:15:05;12.70;;;1.63;;
25946;SDS011;13745;51.470;9.894;2022-09-17T07:17:53;16.55;;;2.47;;
25946;SDS011;13745;51.470;9.894;2022-09-17T07:20:39;18.63;;;3.00;;
25946;SDS011;13745;51.470;9.894;2022-09-17T07:23:26;11.23;;;1.95;;
25946;SDS011;13745;51.470;9.894;2022-09-17T07:26:13;13.02;;;2.10;;
25946;SDS011;13745;51.470;9.894;2022-09-17T07:29:00;16.52;;;1.92;;
25946;SDS011;13745;51.470;9.894;2022-09-17T07:31:45;12.88;;;1.98;;
25946;SDS011;13745;51.470;9.894;2022-09-17T07:34:31;14.27;;;2.40;;
25946;SDS011;13745;51.470;9.894;2022-09-17T07:37:17;19.23;;;2.17;;
25946;SDS011;13745;51.470;9.894;2022-09-17T07:40:06;12.40;;;2.05;;
25946;SDS011;13745;51.470;9.894;2022-09-17T07:42:55;15.23;;;2.10;;
25946;SDS011;13745;51.470;9.894;2022-09-17T07:45:41;13.13;;;2.25;;
25946;SDS011;13745;51.470;9.894;2022-09-17T07:48:27;12.73;;;2.25;;
25946;SDS011;13745;51.470;9.894;2022-09-17T07:51:14;18.83;;;3.15;;
25946;SDS011;13745;51.470;9.894;2022-09-17T07:54:01;12.32;;;1.75;;
25946;SDS011;13745;51.470;9.894;2022-09-17T07:56:47;14.13;;;2.20;;
25946;SDS011;13745;51.470;9.894;2022-09-17T07:59:33;10.38;;;1.80;;
25946;SDS011;13745;51.470;9.894;2022-09-17T08:02:19;10.93;;;1.98;;
25946;SDS011;13745;51.470;9.894;2022-09-17T08:05:06;8.07;;;2.00;;
25946;SDS011;13745;51.470;9.894;2022-09-17T08:07:54;11.48;;;1.45;;
25946;SDS011;13745;51.470;9.894;2022-09-17T08:10:40;17.88;;;3.30;;
25946;SDS011;13745;51.470;9.894;2022-09-17T08:13:27;12.50;;;2.35;;
25946;SDS011;13745;51.470;9.894;2022-09-17T08:16:12;13.40;;;1.55;;
25946;SDS011;13745;51.470;9.894;2022-09-17T08:18:58;10.20;;;1.95;;
25946;SDS011;13745;51.470;9.894;2022-09-17T08:21:44;11.98;;;2.15;;
25946;SDS011;13745;51.470;9.894;2022-09-17T08:24:30;13.40;;;1.88;;
25946;SDS011;13745;51.470;9.894;2022-09-17T08:27:15;12.05;;;1.52;;
25946;SDS011;13745;51.470;9.894;2022-09-17T08:30:02;16.60;;;2.65;;
25946;SDS011;13745;51.470;9.894;2022-09-17T08:32:49;15.95;;;2.30;;
25946;SDS011;13745;51.470;9.894;2022-09-17T08:35:34;11.95;;;1.95;;
25946;SDS011;13745;51.470;9.894;2022-09-17T08:38:20;15.65;;;2.20;;
25946;SDS011;13745;51.470;9.894;2022-09-17T08:41:09;17.02;;;2.50;;
25946;SDS011;13745;51.470;9.894;2022-09-17T08:44:07;11.65;;;1.90;;
25946;SDS011;13745;51.470;9.894;2022-09-17T08:47:03;9.95;;;1.98;;
25946;SDS011;13745;51.470;9.894;2022-09-17T08:49:58;13.35;;;1.90;;
25946;SDS011;13745;51.470;9.894;2022-09-17T08:52:52;9.95;;;1.80;;
25946;SDS011;13745;51.470;9.894;2022-09-17T08:55:49;13.13;;;2.03;;
25946;SDS011;13745;51.470;9.894;2022-09-17T08:58:56;8.60;;;1.70;;
25946;SDS011;13745;51.470;9.894;2022-09-17T09:01:51;11.32;;;2.00;;
25946;SDS011;13745;51.470;9.894;2022-09-17T09:04:55;11.77;;;1.75;;
25946;SDS011;13745;51.470;9.894;2022-09-17T09:07:46;11.10;;;1.90;;
25946;SDS011;13745;51.470;9.894;2022-09-17T09:10:38;8.07;;;1.92;;
25946;SDS011;13745;51.470;9.894;2022-09-17T09:13:32;7.85;;;1.50;;
25946;SDS011;13745;51.470;9.894;2022-09-17T09:16:21;8.73;;;1.90;;
25946;SDS011;13745;51.470;9.894;2022-09-17T09:19:18;8.80;;;1.60;;
25946;SDS011;13745;51.470;9.894;2022-09-17T09:22:21;5.93;;;2.28;;
25946;SDS011;13745;51.470;9.894;2022-09-17T09:25:20;10.85;;;1.80;;
25946;SDS011;13745;51.470;9.894;2022-09-17T09:28:13;6.78;;;1.35;;
25946;SDS011;13745;51.470;9.894;2022-09-17T09:31:20;8.57;;;1.55;;
25946;SDS011;13745;51.470;9.894;2022-09-17T09:34:17;9.30;;;1.30;;
25946;SDS011;13745;51.470;9.894;2022-09-17T09:37:07;6.55;;;1.50;;
25946;SDS011;13745;51.470;9.894;2022-09-17T09:39:59;10.10;;;1.50;;
25946;SDS011;13745;51.470;9.894;2022-09-17T09:45:46;7.88;;;1.63;;
25946;SDS011;13745;51.470;9.894;2022-09-17T09:48:43;7.73;;;2.00;;
25946;SDS011;13745;51.470;9.894;2022-09-17T09:51:39;5.10;;;1.70;;
25946;SDS011;13745;51.470;9.894;2022-09-17T09:54:42;7.68;;;1.55;;
25946;SDS011;13745;51.470;9.894;2022-09-17T09:57:41;4.97;;;1.40;;
25946;SDS011;13745;51.470;9.894;2022-09-17T10:00:32;10.73;;;2.03;;
25946;SDS011;13745;51.470;9.894;2022-09-17T10:03:22;11.63;;;1.52;;
25946;SDS011;13745;51.470;9.894;2022-09-17T10:06:11;5.55;;;1.48;;
25946;SDS011;13745;51.470;9.894;2022-09-17T10:09:11;8.85;;;1.40;;
25946;SDS011;13745;51.470;9.894;2022-09-17T10:11:59;7.35;;;1.42;;
25946;SDS011;13745;51.470;9.894;2022-09-17T10:14:48;10.18;;;1.73;;
25946;SDS011;13745;51.470;9.894;2022-09-17T10:17:34;6.53;;;1.15;;
25946;SDS011;13745;51.470;9.894;2022-09-17T10:20:20;9.70;;;1.50;;
25946;SDS011;13745;51.470;9.894;2022-09-17T10:23:06;7.43;;;1.10;;
25946;SDS011;13745;51.470;9.894;2022-09-17T10:25:51;8.27;;;1.35;;
25946;SDS011;13745;51.470;9.894;2022-09-17T10:28:44;6.55;;;1.50;;
25946;SDS011;13745;51.470;9.894;2022-09-17T10:31:44;7.38;;;1.30;;
25946;SDS011;13745;51.470;9.894;2022-09-17T10:34:31;6.10;;;1.42;;
25946;SDS011;13745;51.470;9.894;2022-09-17T10:37:30;6.38;;;1.40;;
25946;SDS011;13745;51.470;9.894;2022-09-17T10:40:26;3.75;;;1.30;;
25946;SDS011;13745;51.470;9.894;2022-09-17T10:43:16;8.55;;;1.73;;
25946;SDS011;13745;51.470;9.894;2022-09-17T10:46:07;6.07;;;1.30;;
25946;SDS011;13745;51.470;9.894;2022-09-17T10:48:57;8.00;;;1.70;;
25946;SDS011;13745;51.470;9.894;2022-09-17T10:52:02;7.25;;;1.20;;
25946;SDS011;13745;51.470;9.894;2022-09-17T10:58:03;7.57;;;1.60;;
25946;SDS011;13745;51.470;9.894;2022-09-17T11:01:08;4.45;;;1.13;;
25946;SDS011;13745;51.470;9.894;2022-09-17T11:04:12;10.45;;;1.42;;
25946;SDS011;13745;51.470;9.894;2022-09-17T11:07:24;8.93;;;1.50;;
25946;SDS011;13745;51.470;9.894;2022-09-17T11:10:20;11.10;;;1.60;;
25946;SDS011;13745;51.470;9.894;2022-09-17T11:13:15;2.20;;;0.50;;
25946;SDS011;13745;51.470;9.894;2022-09-17T11:16:13;3.28;;;0.70;;
25946;SDS011;13745;51.470;9.894;2022-09-17T11:19:17;2.20;;;0.50;;
25946;SDS011;13745;51.470;9.894;2022-09-17T11:22:15;3.03;;;1.17;;
25946;SDS011;13745;51.470;9.894;2022-09-17T11:25:20;2.00;;;1.20;;
25946;SDS011;13745;51.470;9.894;2022-09-17T11:28:21;2.67;;;0.82;;
25946;SDS011;13745;51.470;9.894;2022-09-17T11:31:23;6.03;;;0.98;;
25946;SDS011;13745;51.470;9.894;2022-09-17T11:34:21;3.10;;;0.98;;
25946;SDS011;13745;51.470;9.894;2022-09-17T11:37:12;3.33;;;1.35;;
25946;SDS011;13745;51.470;9.894;2022-09-17T11:40:05;4.97;;;1.60;;
25946;SDS011;13745;51.470;9.894;2022-09-17T11:42:58;5.32;;;1.23;;
25946;SDS011;13745;51.470;9.894;2022-09-17T11:45:51;3.78;;;1.05;;
25946;SDS011;13745;51.470;9.894;2022-09-17T11:48:44;2.42;;;1.23;;
25946;SDS011;13745;51.470;9.894;2022-09-17T11:51:35;6.07;;;1.27;;
25946;SDS011;13745;51.470;9.894;2022-09-17T11:54:25;6.55;;;1.38;;
25946;SDS011;13745;51.470;9.894;2022-09-17T11:57:15;5.30;;;1.10;;
25946;SDS011;13745;51.470;9.894;2022-09-17T12:00:04;6.47;;;1.10;;
25946;SDS011;13745;51.470;9.894;2022-09-17T12:02:58;4.28;;;1.08;;
25946;SDS011;13745;51.470;9.894;2022-09-17T12:05:51;2.47;;;1.17;;
25946;SDS011;13745;51.470;9.894;2022-09-17T12:08:41;4.50;;;1.25;;
25946;SDS011;13745;51.470;9.894;2022-09-17T12:11:33;3.70;;;0.80;;
25946;SDS011;13745;51.470;9.894;2022-09-17T12:14:25;4.32;;;0.70;;
25946;SDS011;13745;51.470;9.894;2022-09-17T12:17:16;3.42;;;1.00;;
25946;SDS011;13745;51.470;9.894;2022-09-17T12:20:07;4.22;;;1.00;;
25946;SDS011;13745;51.470;9.894;2022-09-17T12:23:05;2.05;;;0.80;;
25946;SDS011;13745;51.470;9.894;2022-09-17T12:25:56;3.63;;;1.25;;
25946;SDS011;13745;51.470;9.894;2022-09-17T12:28:51;4.25;;;1.13;;
25946;SDS011;13745;51.470;9.894;2022-09-17T12:31:44;2.35;;;0.50;;
25946;SDS011;13745;51.470;9.894;2022-09-17T12:34:39;2.83;;;0.75;;
25946;SDS011;13745;51.470;9.894;2022-09-17T12:37:35;4.43;;;1.38;;
25946;SDS011;13745;51.470;9.894;2022-09-17T12:40:33;4.88;;;1.58;;
25946;SDS011;13745;51.470;9.894;2022-09-17T12:43:30;4.97;;;0.80;;
25946;SDS011;13745;51.470;9.894;2022-09-17T12:46:29;4.93;;;0.73;;
25946;SDS011;13745;51.470;9.894;2022-09-17T12:49:35;4.63;;;0.90;;
25946;SDS011;13745;51.470;9.894;2022-09-17T12:52:32;3.85;;;0.63;;
25946;SDS011;13745;51.470;9.894;2022-09-17T12:55:48;2.10;;;0.50;;
25946;SDS011;13745;51.470;9.894;2022-09-17T12:58:51;7.55;;;0.88;;
25946;SDS011;13745;51.470;9.894;2022-09-17T13:01:47;2.33;;;0.30;;
25946;SDS011;13745;51.470;9.894;2022-09-17T13:04:42;1.98;;;0.40;;
25946;SDS011;13745;51.470;9.894;2022-09-17T13:07:48;2.33;;;0.50;;
25946;SDS011;13745;51.470;9.894;2022-09-17T13:10:54;2.00;;;0.22;;
25946;SDS011;13745;51.470;9.894;2022-09-17T13:13:58;3.47;;;0.35;;
25946;SDS011;13745;51.470;9.894;2022-09-17T13:16:58;1.80;;;0.80;;
25946;SDS011;13745;51.470;9.894;2022-09-17T13:19:50;0.82;;;0.28;;
25946;SDS011;13745;51.470;9.894;2022-09-17T13:22:45;2.42;;;0.40;;
25946;SDS011;13745;51.470;9.894;2022-09-17T13:25:33;3.67;;;0.57;;
25946;SDS011;13745;51.470;9.894;2022-09-17T13:28:21;2.90;;;0.40;;
25946;SDS011;13745;51.470;9.894;2022-09-17T13:31:21;1.42;;;0.52;;
25946;SDS011;13745;51.470;9.894;2022-09-17T13:34:30;2.03;;;0.32;;
25946;SDS011;13745;51.470;9.894;2022-09-17T13:37:19;6.40;;;0.60;;
25946;SDS011;13745;51.470;9.894;2022-09-17T13:40:16;2.53;;;0.50;;
25946;SDS011;13745;51.470;9.894;2022-09-17T13:43:06;2.92;;;0.60;;
25946;SDS011;13745;51.470;9.894;2022-09-17T13:46:13;3.50;;;0.50;;
25946;SDS011;13745;51.470;9.894;2022-09-17T13:49:01;3.15;;;0.55;;
25946;SDS011;13745;51.470;9.894;2022-09-17T13:51:52;2.53;;;0.50;;
25946;SDS011;13745;51.470;9.894;2022-09-17T13:54:38;5.30;;;0.50;;
25946;SDS011;13745;51.470;9.894;2022-09-17T13:57:24;6.40;;;0.50;;
25946;SDS011;13745;51.470;9.894;2022-09-17T14:03:50;3.15;;;0.82;;
25946;SDS011;13745;51.470;9.894;2022-09-17T14:06:49;4.95;;;0.98;;
25946;SDS011;13745;51.470;9.894;2022-09-17T14:09:44;1.95;;;0.30;;
25946;SDS011;13745;51.470;9.894;2022-09-17T14:19:23;2.97;;;0.50;;
25946;SDS011;13745;51.470;9.894;2022-09-17T14:22:15;2.58;;;0.47;;
25946;SDS011;13745;51.470;9.894;2022-09-17T14:25:13;1.83;;;0.43;;
25946;SDS011;13745;51.470;9.894;2022-09-17T14:28:00;4.30;;;0.40;;
25946;SDS011;13745;51.470;9.894;2022-09-17T14:30:55;3.13;;;0.40;;
25946;SDS011;13745;51.470;9.894;2022-09-17T14:33:41;3.35;;;0.50;;
25946;SDS011;13745;51.470;9.894;2022-09-17T14:36:29;1.80;;;0.40;;
25946;SDS011;13745;51.470;9.894;2022-09-17T14:39:22;2.15;;;0.43;;
25946;SDS011;13745;51.470;9.894;2022-09-17T14:42:12;2.45;;;0.57;;
25946;SDS011;13745;51.470;9.894;2022-09-17T14:45:02;4.90;;;0.47;;
25946;SDS011;13745;51.470;9.894;2022-09-17T14:51:12;2.05;;;0.40;;
25946;SDS011;13745;51.470;9.894;2022-09-17T14:54:10;3.13;;;0.30;;
25946;SDS011;13745;51.470;9.894;2022-09-17T14:57:01;3.87;;;0.47;;
25946;SDS011;13745;51.470;9.894;2022-09-17T14:59:55;5.05;;;0.85;;
25946;SDS011;13745;51.470;9.894;2022-09-17T15:02:41;2.00;;;0.30;;
25946;SDS011;13745;51.470;9.894;2022-09-17T15:05:28;4.05;;;0.50;;
25946;SDS011;13745;51.470;9.894;2022-09-17T15:08:17;2.28;;;0.30;;
25946;SDS011;13745;51.470;9.894;2022-09-17T15:11:08;6.85;;;0.60;;
25946;SDS011;13745;51.470;9.894;2022-09-17T15:13:57;2.60;;;0.45;;
25946;SDS011;13745;51.470;9.894;2022-09-17T15:16:47;1.50;;;0.32;;
25946;SDS011;13745;51.470;9.894;2022-09-17T15:19:36;1.38;;;0.30;;
25946;SDS011;13745;51.470;9.894;2022-09-17T15:22:24;1.08;;;0.22;;
25946;SDS011;13745;51.470;9.894;2022-09-17T15:25:14;4.00;;;0.50;;
25946;SDS011;13745;51.470;9.894;2022-09-17T15:28:10;3.17;;;0.40;;
25946;SDS011;13745;51.470;9.894;2022-09-17T15:31:05;4.30;;;0.30;;
25946;SDS011;13745;51.470;9.894;2022-09-17T15:34:05;3.88;;;0.50;;
25946;SDS011;13745;51.470;9.894;2022-09-17T15:37:03;4.55;;;0.38;;
25946;SDS011;13745;51.470;9.894;2022-09-17T15:39:51;2.88;;;0.47;;
25946;SDS011;13745;51.470;9.894;2022-09-17T15:42:39;5.50;;;0.50;;
25946;SDS011;13745;51.470;9.894;2022-09-17T15:45:34;2.03;;;0.40;;
25946;SDS011;13745;51.470;9.894;2022-09-17T15:51:25;4.22;;;0.32;;
25946;SDS011;13745;51.470;9.894;2022-09-17T15:54:24;1.75;;;0.70;;
25946;SDS011;13745;51.470;9.894;2022-09-17T15:57:13;2.58;;;0.32;;
25946;SDS011;13745;51.470;9.894;2022-09-17T16:00:06;1.95;;;0.38;;
25946;SDS011;13745;51.470;9.894;2022-09-17T16:02:57;1.33;;;0.30;;
25946;SDS011;13745;51.470;9.894;2022-09-17T16:05:45;5.22;;;0.52;;
25946;SDS011;13745;51.470;9.894;2022-09-17T16:08:32;3.42;;;0.35;;
25946;SDS011;13745;51.470;9.894;2022-09-17T16:11:19;1.40;;;0.30;;
25946;SDS011;13745;51.470;9.894;2022-09-17T16:14:06;6.13;;;0.85;;
25946;SDS011;13745;51.470;9.894;2022-09-17T16:16:52;4.82;;;0.60;;
25946;SDS011;13745;51.470;9.894;2022-09-17T16:19:39;1.13;;;0.20;;
25946;SDS011;13745;51.470;9.894;2022-09-17T16:22:27;3.85;;;0.43;;
25946;SDS011;13745;51.470;9.894;2022-09-17T16:25:12;3.53;;;0.60;;
25946;SDS011;13745;51.470;9.894;2022-09-17T16:27:59;4.10;;;0.40;;
25946;SDS011;13745;51.470;9.894;2022-09-17T16:30:48;1.48;;;0.20;;
25946;SDS011;13745;51.470;9.894;2022-09-17T16:33:34;3.30;;;0.40;;
25946;SDS011;13745;51.470;9.894;2022-09-17T16:36:19;2.50;;;0.38;;
25946;SDS011;13745;51.470;9.894;2022-09-17T16:39:07;1.65;;;0.38;;
25946;SDS011;13745;51.470;9.894;2022-09-17T16:41:53;2.92;;;0.60;;
25946;SDS011;13745;51.470;9.894;2022-09-17T16:44:38;3.33;;;0.63;;
25946;SDS011;13745;51.470;9.894;2022-09-17T16:47:24;4.80;;;0.60;;
25946;SDS011;13745;51.470;9.894;2022-09-17T16:50:11;7.78;;;1.17;;
25946;SDS011;13745;51.470;9.894;2022-09-17T16:52:57;4.78;;;0.80;;
25946;SDS011;13745;51.470;9.894;2022-09-17T16:55:45;5.40;;;0.70;;
25946;SDS011;13745;51.470;9.894;2022-09-17T16:58:31;6.95;;;0.75;;
25946;SDS011;13745;51.470;9.894;2022-09-17T17:01:19;4.95;;;0.63;;
25946;SDS011;13745;51.470;9.894;2022-09-17T17:04:05;5.75;;;0.50;;
25946;SDS011;13745;51.470;9.894;2022-09-17T17:06:51;3.03;;;0.70;;
25946;SDS011;13745;51.470;9.894;2022-09-17T17:09:37;5.70;;;0.80;;
25946;SDS011;13745;51.470;9.894;2022-09-17T17:12:25;4.38;;;0.65;;
25946;SDS011;13745;51.470;9.894;2022-09-17T17:15:11;4.63;;;0.60;;
25946;SDS011;13745;51.470;9.894;2022-09-17T17:17:57;5.13;;;0.90;;
25946;SDS011;13745;51.470;9.894;2022-09-17T17:20:42;5.47;;;0.73;;
25946;SDS011;13745;51.470;9.894;2022-09-17T17:23:28;6.28;;;1.05;;
25946;SDS011;13745;51.470;9.894;2022-09-17T17:26:13;4.80;;;0.60;;